sensor_id;sensor_type;location;lat;lon;timestamp;pressure;altitude;pressure_sealevel;temperature;humidity
64019;BME280;66942;52.138;5.216;2023-05-03T00:00:16;103042.0;;;11.01;48.65
64019;BME280;66942;52.138;5.216;2023-05-03T00:01:53;103039.00000000001;;;10.81;49.55
64019;BME280;66942;52.138;5.216;2023-05-03T00:05:07;103041.00000000001;;;10.62;49.69
64019;BME280;66942;52.138;5.216;2023-05-03T00:06:43;103042.0;;;10.6;49.74
64019;BME280;66942;52.138;5.216;2023-05-03T00:08:19;103043.0;;;10.84;49.13
64019;BME280;66942;52.138;5.216;2023-05-03T00:09:56;103040.00000000001;;;10.74;49.92
64019;BME280;66942;52.138;5.216;2023-05-03T00:13:09;103036.99999999999;;;10.79;49.16
64019;BME280;66942;52.138;5.216;2023-05-03T00:14:45;103033.99999999999;;;10.63;50.05
64019;BME280;66942;52.138;5.216;2023-05-03T00:16:22;103036.99999999999;;;10.9;48.95
64019;BME280;66942;52.138;5.216;2023-05-03T00:19:35;103033.99999999999;;;10.77;49.01
64019;BME280;66942;52.138;5.216;2023-05-03T00:21:11;103033.99999999999;;;10.75;49.06
64019;BME280;66942;52.138;5.216;2023-05-03T00:22:47;103041.00000000001;;;11.06;48.39
64019;BME280;66942;52.138;5.216;2023-05-03T00:26:00;103033.99999999999;;;10.84;49.03
64019;BME280;66942;52.138;5.216;2023-05-03T00:27:36;103033.99999999999;;;10.61;50.32
64019;BME280;66942;52.138;5.216;2023-05-03T00:29:12;103033.0;;;10.72;49.55
64019;BME280;66942;52.138;5.216;2023-05-03T00:32:24;103040.00000000001;;;10.72;49.51
64019;BME280;66942;52.138;5.216;2023-05-03T00:34:00;103032.0;;;10.96;48.69
64019;BME280;66942;52.138;5.216;2023-05-03T00:35:37;103026.0;;;11.2;48.05
64019;BME280;66942;52.138;5.216;2023-05-03T00:37:13;103024.0;;;11.16;47.98
64019;BME280;66942;52.138;5.216;2023-05-03T00:40:25;103030.0;;;10.88;48.86
64019;BME280;66942;52.138;5.216;2023-05-03T00:42:02;103036.99999999999;;;11.13;48.22
64019;BME280;66942;52.138;5.216;2023-05-03T00:43:38;103030.0;;;10.83;48.87
64019;BME280;66942;52.138;5.216;2023-05-03T00:46:51;103040.00000000001;;;10.7;49.24
64019;BME280;66942;52.138;5.216;2023-05-03T00:48:27;103040.00000000001;;;10.66;49.17
64019;BME280;66942;52.138;5.216;2023-05-03T00:50:04;103041.00000000001;;;11.06;47.98
64019;BME280;66942;52.138;5.216;2023-05-03T00:53:17;103036.99999999999;;;10.84;48.42
64019;BME280;66942;52.138;5.216;2023-05-03T00:54:54;103033.99999999999;;;10.52;49.33
64019;BME280;66942;52.138;5.216;2023-05-03T00:56:31;103040.00000000001;;;10.32;50.14
64019;BME280;66942;52.138;5.216;2023-05-03T00:58:09;103038.00000000001;;;10.41;49.76
64019;BME280;66942;52.138;5.216;2023-05-03T01:01:22;103033.99999999999;;;10.29;49.72
64019;BME280;66942;52.138;5.216;2023-05-03T01:02:59;103034.99999999999;;;10.48;49.31
64019;BME280;66942;52.138;5.216;2023-05-03T01:04:35;103040.00000000001;;;10.3;49.62
64019;BME280;66942;52.138;5.216;2023-05-03T01:08:05;103034.99999999999;;;10.58;49.0
64019;BME280;66942;52.138;5.216;2023-05-03T01:09:59;103038.00000000001;;;10.66;48.72
64019;BME280;66942;52.138;5.216;2023-05-03T01:11:41;103042.0;;;10.55;49.18
64019;BME280;66942;52.138;5.216;2023-05-03T01:13:34;103041.00000000001;;;10.74;48.69
64019;BME280;66942;52.138;5.216;2023-05-03T01:15:22;103038.00000000001;;;10.8;48.5
64019;BME280;66942;52.138;5.216;2023-05-03T01:17:05;103038.00000000001;;;11.0;47.88
64019;BME280;66942;52.138;5.216;2023-05-03T01:20:22;103036.99999999999;;;10.88;48.25
64019;BME280;66942;52.138;5.216;2023-05-03T01:22:09;103040.00000000001;;;10.62;48.62
64019;BME280;66942;52.138;5.216;2023-05-03T01:23:56;103039.00000000001;;;10.37;49.47
64019;BME280;66942;52.138;5.216;2023-05-03T01:25:34;103039.00000000001;;;10.62;49.16
64019;BME280;66942;52.138;5.216;2023-05-03T01:28:47;103043.0;;;10.8;48.52
64019;BME280;66942;52.138;5.216;2023-05-03T01:30:26;103038.00000000001;;;10.54;49.09
64019;BME280;66942;52.138;5.216;2023-05-03T01:32:06;103041.00000000001;;;10.64;48.85
64019;BME280;66942;52.138;5.216;2023-05-03T01:33:48;103039.00000000001;;;10.55;48.96
64019;BME280;66942;52.138;5.216;2023-05-03T01:37:13;103033.99999999999;;;10.23;50.14
64019;BME280;66942;52.138;5.216;2023-05-03T01:38:49;103033.0;;;10.11;50.29
64019;BME280;66942;52.138;5.216;2023-05-03T01:40:27;103032.0;;;10.21;50.05
64019;BME280;66942;52.138;5.216;2023-05-03T01:42:04;103027.0;;;10.23;50.05
64019;BME280;66942;52.138;5.216;2023-05-03T01:45:18;103032.0;;;10.42;49.61
64019;BME280;66942;52.138;5.216;2023-05-03T01:46:56;103033.0;;;10.55;49.37
64019;BME280;66942;52.138;5.216;2023-05-03T01:48:32;103027.0;;;10.78;48.46
64019;BME280;66942;52.138;5.216;2023-05-03T01:51:44;103031.0;;;10.43;49.4
64019;BME280;66942;52.138;5.216;2023-05-03T01:53:20;103033.0;;;10.62;49.02
64019;BME280;66942;52.138;5.216;2023-05-03T01:54:57;103029.0;;;10.76;48.62
64019;BME280;66942;52.138;5.216;2023-05-03T01:58:10;103033.99999999999;;;10.58;48.92
64019;BME280;66942;52.138;5.216;2023-05-03T01:59:46;103033.0;;;10.43;49.53
64019;BME280;66942;52.138;5.216;2023-05-03T02:01:22;103033.0;;;10.35;49.62
64019;BME280;66942;52.138;5.216;2023-05-03T02:02:58;103033.99999999999;;;10.29;49.85
64019;BME280;66942;52.138;5.216;2023-05-03T02:06:11;103032.0;;;10.08;50.34
64019;BME280;66942;52.138;5.216;2023-05-03T02:07:47;103027.0;;;10.33;49.56
64019;BME280;66942;52.138;5.216;2023-05-03T02:09:23;103026.0;;;10.26;49.7
64019;BME280;66942;52.138;5.216;2023-05-03T02:12:36;103019.0;;;10.15;50.02
64019;BME280;66942;52.138;5.216;2023-05-03T02:14:12;103021.0;;;10.0;50.04
64019;BME280;66942;52.138;5.216;2023-05-03T02:15:48;103017.0;;;10.02;50.35
64019;BME280;66942;52.138;5.216;2023-05-03T02:19:01;103014.00000000001;;;10.08;50.05
64019;BME280;66942;52.138;5.216;2023-05-03T02:20:37;103008.99999999999;;;9.94;50.21
64019;BME280;66942;52.138;5.216;2023-05-03T02:22:13;103004.0;;;9.98;50.19
64019;BME280;66942;52.138;5.216;2023-05-03T02:23:49;103002.0;;;10.06;49.86
64019;BME280;66942;52.138;5.216;2023-05-03T02:27:01;102996.0;;;10.07;49.83
64019;BME280;66942;52.138;5.216;2023-05-03T02:28:37;102992.0;;;10.09;49.84
64019;BME280;66942;52.138;5.216;2023-05-03T02:30:13;102989.00000000001;;;10.02;50.12
64019;BME280;66942;52.138;5.216;2023-05-03T02:33:26;102983.0;;;10.09;50.01
64019;BME280;66942;52.138;5.216;2023-05-03T02:35:02;102979.0;;;9.98;50.23
64019;BME280;66942;52.138;5.216;2023-05-03T02:36:38;102973.0;;;9.86;50.57
64019;BME280;66942;52.138;5.216;2023-05-03T02:39:50;102975.0;;;9.86;50.62
64019;BME280;66942;52.138;5.216;2023-05-03T02:41:26;102974.0;;;10.09;49.92
64019;BME280;66942;52.138;5.216;2023-05-03T02:43:03;102971.0;;;10.15;49.71
64019;BME280;66942;52.138;5.216;2023-05-03T02:46:16;102975.0;;;10.53;48.84
64019;BME280;66942;52.138;5.216;2023-05-03T02:47:52;102980.0;;;10.76;48.07
64019;BME280;66942;52.138;5.216;2023-05-03T02:49:28;102976.0;;;10.84;47.73
64019;BME280;66942;52.138;5.216;2023-05-03T02:51:04;102982.0;;;10.78;47.91
64019;BME280;66942;52.138;5.216;2023-05-03T02:54:16;102983.99999999999;;;10.86;47.78
64019;BME280;66942;52.138;5.216;2023-05-03T02:55:52;102989.00000000001;;;10.76;48.08
64019;BME280;66942;52.138;5.216;2023-05-03T02:57:29;102991.00000000001;;;10.62;48.34
64019;BME280;66942;52.138;5.216;2023-05-03T03:00:42;102995.0;;;10.72;48.17
64019;BME280;66942;52.138;5.216;2023-05-03T03:02:18;102997.0;;;10.94;47.63
64019;BME280;66942;52.138;5.216;2023-05-03T03:03:54;103003.0;;;11.23;46.82
64019;BME280;66942;52.138;5.216;2023-05-03T03:07:07;103005.0;;;10.66;48.13
64019;BME280;66942;52.138;5.216;2023-05-03T03:08:44;103006.0;;;10.44;48.82
64019;BME280;66942;52.138;5.216;2023-05-03T03:10:21;103007.0;;;9.98;50.32
64019;BME280;66942;52.138;5.216;2023-05-03T03:11:57;103003.0;;;10.26;49.63
64019;BME280;66942;52.138;5.216;2023-05-03T03:15:10;103002.0;;;10.43;48.92
64019;BME280;66942;52.138;5.216;2023-05-03T03:16:46;103006.0;;;10.52;48.55
64019;BME280;66942;52.138;5.216;2023-05-03T03:18:22;103008.99999999999;;;10.13;49.42
64019;BME280;66942;52.138;5.216;2023-05-03T03:21:34;103004.0;;;10.01;49.45
64019;BME280;66942;52.138;5.216;2023-05-03T03:23:11;103004.0;;;9.83;49.72
64019;BME280;66942;52.138;5.216;2023-05-03T03:24:47;102997.0;;;9.9;49.76
64019;BME280;66942;52.138;5.216;2023-05-03T03:27:59;103001.0;;;9.69;50.16
64019;BME280;66942;52.138;5.216;2023-05-03T03:29:35;103002.0;;;9.49;51.09
64019;BME280;66942;52.138;5.216;2023-05-03T03:31:11;103007.0;;;9.55;50.53
64019;BME280;66942;52.138;5.216;2023-05-03T03:34:23;103005.0;;;9.58;50.05
64019;BME280;66942;52.138;5.216;2023-05-03T03:36:00;103005.0;;;9.39;50.46
64019;BME280;66942;52.138;5.216;2023-05-03T03:37:36;103002.0;;;9.6;49.86
64019;BME280;66942;52.138;5.216;2023-05-03T03:39:13;103011.99999999999;;;9.74;49.69
64019;BME280;66942;52.138;5.216;2023-05-03T03:42:25;103014.00000000001;;;9.6;49.68
64019;BME280;66942;52.138;5.216;2023-05-03T03:44:01;103014.00000000001;;;9.41;50.33
64019;BME280;66942;52.138;5.216;2023-05-03T03:45:37;103009.99999999999;;;9.39;50.49
64019;BME280;66942;52.138;5.216;2023-05-03T03:48:50;103011.99999999999;;;9.27;51.33
64019;BME280;66942;52.138;5.216;2023-05-03T03:50:26;103014.00000000001;;;9.02;51.41
64019;BME280;66942;52.138;5.216;2023-05-03T03:52:02;103015.00000000001;;;9.02;50.98
64019;BME280;66942;52.138;5.216;2023-05-03T03:55:15;103017.0;;;9.06;50.66
64019;BME280;66942;52.138;5.216;2023-05-03T03:56:51;103015.00000000001;;;8.96;50.95
64019;BME280;66942;52.138;5.216;2023-05-03T03:58:28;103011.99999999999;;;8.85;51.12
64019;BME280;66942;52.138;5.216;2023-05-03T04:00:04;103015.00000000001;;;8.86;51.25
64019;BME280;66942;52.138;5.216;2023-05-03T04:03:17;103021.0;;;8.75;51.7
64019;BME280;66942;52.138;5.216;2023-05-03T04:04:53;103023.0;;;8.99;50.78
64019;BME280;66942;52.138;5.216;2023-05-03T04:06:29;103028.0;;;9.1;50.29
64019;BME280;66942;52.138;5.216;2023-05-03T04:09:41;103020.0;;;8.9;51.0
64019;BME280;66942;52.138;5.216;2023-05-03T04:11:18;103019.0;;;8.73;51.03
64019;BME280;66942;52.138;5.216;2023-05-03T04:12:54;103017.0;;;8.91;50.64
64019;BME280;66942;52.138;5.216;2023-05-03T04:16:06;103017.0;;;8.98;50.82
64019;BME280;66942;52.138;5.216;2023-05-03T04:17:43;103022.0;;;9.03;50.16
64019;BME280;66942;52.138;5.216;2023-05-03T04:19:19;103026.0;;;9.06;50.2
64019;BME280;66942;52.138;5.216;2023-05-03T04:22:31;103034.99999999999;;;9.18;49.91
64019;BME280;66942;52.138;5.216;2023-05-03T04:24:07;103036.99999999999;;;9.14;49.94
64019;BME280;66942;52.138;5.216;2023-05-03T04:25:43;103036.99999999999;;;9.17;49.85
64019;BME280;66942;52.138;5.216;2023-05-03T04:27:19;103036.99999999999;;;9.15;50.27
64019;BME280;66942;52.138;5.216;2023-05-03T04:30:33;103042.0;;;9.13;50.04
64019;BME280;66942;52.138;5.216;2023-05-03T04:32:08;103046.0;;;8.85;51.3
64019;BME280;66942;52.138;5.216;2023-05-03T04:33:44;103048.0;;;8.82;51.36
64019;BME280;66942;52.138;5.216;2023-05-03T04:36:57;103052.0;;;9.09;50.43
64019;BME280;66942;52.138;5.216;2023-05-03T04:38:33;103058.0;;;9.22;50.07
64019;BME280;66942;52.138;5.216;2023-05-03T04:40:09;103064.00000000001;;;8.9;50.9
64019;BME280;66942;52.138;5.216;2023-05-03T04:43:20;103068.0;;;8.98;51.19
64019;BME280;66942;52.138;5.216;2023-05-03T04:44:56;103068.0;;;9.01;51.38
64019;BME280;66942;52.138;5.216;2023-05-03T04:46:31;103069.0;;;9.16;50.88
64019;BME280;66942;52.138;5.216;2023-05-03T04:49:43;103065.00000000001;;;9.09;51.27
64019;BME280;66942;52.138;5.216;2023-05-03T04:51:19;103067.0;;;9.14;50.96
64019;BME280;66942;52.138;5.216;2023-05-03T04:52:54;103067.0;;;9.06;51.31
64019;BME280;66942;52.138;5.216;2023-05-03T04:54:30;103065.00000000001;;;9.05;51.61
64019;BME280;66942;52.138;5.216;2023-05-03T04:57:41;103065.00000000001;;;9.23;51.16
64019;BME280;66942;52.138;5.216;2023-05-03T04:59:17;103064.00000000001;;;9.41;50.37
64019;BME280;66942;52.138;5.216;2023-05-03T05:00:53;103058.0;;;9.24;51.55
64019;BME280;66942;52.138;5.216;2023-05-03T05:04:04;103057.0;;;9.24;51.5
64019;BME280;66942;52.138;5.216;2023-05-03T05:05:40;103059.99999999999;;;9.59;50.67
64019;BME280;66942;52.138;5.216;2023-05-03T05:07:16;103057.0;;;9.53;50.65
64019;BME280;66942;52.138;5.216;2023-05-03T05:10:29;103064.00000000001;;;10.16;49.41
64019;BME280;66942;52.138;5.216;2023-05-03T05:12:05;103066.00000000001;;;10.43;48.71
64019;BME280;66942;52.138;5.216;2023-05-03T05:13:42;103068.0;;;10.47;48.59
64019;BME280;66942;52.138;5.216;2023-05-03T05:16:54;103074.0;;;10.45;48.69
64019;BME280;66942;52.138;5.216;2023-05-03T05:18:30;103078.0;;;10.38;49.01
64019;BME280;66942;52.138;5.216;2023-05-03T05:20:07;103076.0;;;10.5;48.83
64019;BME280;66942;52.138;5.216;2023-05-03T05:21:44;103073.0;;;10.89;47.89
64019;BME280;66942;52.138;5.216;2023-05-03T05:24:56;103075.0;;;10.97;48.0
64019;BME280;66942;52.138;5.216;2023-05-03T05:26:32;103073.0;;;10.78;48.62
64019;BME280;66942;52.138;5.216;2023-05-03T05:28:08;103077.0;;;10.79;48.91
64019;BME280;66942;52.138;5.216;2023-05-03T05:31:21;103076.0;;;10.54;49.76
64019;BME280;66942;52.138;5.216;2023-05-03T05:32:58;103074.0;;;10.69;49.77
64019;BME280;66942;52.138;5.216;2023-05-03T05:34:34;103073.0;;;11.08;48.97
64019;BME280;66942;52.138;5.216;2023-05-03T05:37:46;103074.0;;;10.9;50.57
64019;BME280;66942;52.138;5.216;2023-05-03T05:39:22;103073.0;;;11.15;49.83
64019;BME280;66942;52.138;5.216;2023-05-03T05:40:58;103067.0;;;11.4;50.09
64019;BME280;66942;52.138;5.216;2023-05-03T05:42:35;103069.0;;;11.47;49.91
64019;BME280;66942;52.138;5.216;2023-05-03T05:45:47;103072.0;;;11.51;49.54
64019;BME280;66942;52.138;5.216;2023-05-03T05:47:23;103072.0;;;11.89;49.5
64019;BME280;66942;52.138;5.216;2023-05-03T05:48:59;103075.0;;;12.29;48.83
64019;BME280;66942;52.138;5.216;2023-05-03T05:52:12;103078.0;;;12.42;48.74
64019;BME280;66942;52.138;5.216;2023-05-03T05:53:48;103076.0;;;12.71;47.66
64019;BME280;66942;52.138;5.216;2023-05-03T05:55:24;103077.0;;;13.21;46.76
64019;BME280;66942;52.138;5.216;2023-05-03T05:58:35;103076.0;;;13.32;46.02
64019;BME280;66942;52.138;5.216;2023-05-03T06:00:12;103076.0;;;13.51;46.43
64019;BME280;66942;52.138;5.216;2023-05-03T06:01:48;103077.0;;;13.89;44.79
64019;BME280;66942;52.138;5.216;2023-05-03T06:05:01;103077.0;;;14.13;44.31
64019;BME280;66942;52.138;5.216;2023-05-03T06:06:37;103080.0;;;14.1;43.15
64019;BME280;66942;52.138;5.216;2023-05-03T06:08:13;103082.0;;;14.46;43.1
64019;BME280;66942;52.138;5.216;2023-05-03T06:09:49;103078.0;;;14.69;42.7
64019;BME280;66942;52.138;5.216;2023-05-03T06:13:02;103076.0;;;14.6;42.0
64019;BME280;66942;52.138;5.216;2023-05-03T06:14:38;103079.0;;;14.61;42.14
64019;BME280;66942;52.138;5.216;2023-05-03T06:16:14;103077.0;;;14.81;41.1
64019;BME280;66942;52.138;5.216;2023-05-03T06:19:26;103072.0;;;15.09;41.26
64019;BME280;66942;52.138;5.216;2023-05-03T06:21:02;103073.0;;;14.89;40.46
64019;BME280;66942;52.138;5.216;2023-05-03T06:22:39;103068.0;;;15.34;39.94
64019;BME280;66942;52.138;5.216;2023-05-03T06:25:52;103067.0;;;15.34;39.93
64019;BME280;66942;52.138;5.216;2023-05-03T06:27:28;103066.00000000001;;;15.49;39.42
64019;BME280;66942;52.138;5.216;2023-05-03T06:29:04;103063.00000000001;;;15.21;38.99
64019;BME280;66942;52.138;5.216;2023-05-03T06:30:40;103067.0;;;15.46;39.04
64019;BME280;66942;52.138;5.216;2023-05-03T06:33:53;103058.99999999999;;;15.34;39.53
64019;BME280;66942;52.138;5.216;2023-05-03T06:35:30;103057.0;;;15.47;38.56
64019;BME280;66942;52.138;5.216;2023-05-03T06:37:06;103056.0;;;15.81;38.35
64019;BME280;66942;52.138;5.216;2023-05-03T06:40:18;103057.0;;;15.56;39.06
64019;BME280;66942;52.138;5.216;2023-05-03T06:41:54;103063.00000000001;;;16.02;38.81
64019;BME280;66942;52.138;5.216;2023-05-03T06:43:30;103067.0;;;15.96;39.12
64019;BME280;66942;52.138;5.216;2023-05-03T06:46:43;103061.99999999999;;;15.93;38.26
64019;BME280;66942;52.138;5.216;2023-05-03T06:48:21;103057.0;;;16.06;39.28
64019;BME280;66942;52.138;5.216;2023-05-03T06:49:58;103053.0;;;15.46;37.71
64019;BME280;66942;52.138;5.216;2023-05-03T06:53:10;103056.0;;;16.28;37.49
64019;BME280;66942;52.138;5.216;2023-05-03T06:54:46;103056.0;;;16.23;37.22
64019;BME280;66942;52.138;5.216;2023-05-03T06:56:22;103049.0;;;16.57;36.74
64019;BME280;66942;52.138;5.216;2023-05-03T06:57:58;103044.0;;;16.65;37.46
64019;BME280;66942;52.138;5.216;2023-05-03T07:01:11;103044.0;;;16.68;36.29
64019;BME280;66942;52.138;5.216;2023-05-03T07:02:47;103045.0;;;16.25;36.35
64019;BME280;66942;52.138;5.216;2023-05-03T07:04:23;103042.0;;;16.36;35.46
64019;BME280;66942;52.138;5.216;2023-05-03T07:07:36;103036.99999999999;;;16.72;35.01
64019;BME280;66942;52.138;5.216;2023-05-03T07:09:12;103028.0;;;16.77;34.56
64019;BME280;66942;52.138;5.216;2023-05-03T07:10:48;103032.0;;;16.5;34.85
64019;BME280;66942;52.138;5.216;2023-05-03T07:14:00;103030.0;;;16.64;34.24
64019;BME280;66942;52.138;5.216;2023-05-03T07:15:36;103038.00000000001;;;16.78;34.53
64019;BME280;66942;52.138;5.216;2023-05-03T07:17:12;103030.0;;;17.04;35.06
64019;BME280;66942;52.138;5.216;2023-05-03T07:18:48;103032.0;;;16.59;34.24
64019;BME280;66942;52.138;5.216;2023-05-03T07:22:01;103027.0;;;17.11;34.31
64019;BME280;66942;52.138;5.216;2023-05-03T07:23:37;103028.0;;;17.41;34.57
64019;BME280;66942;52.138;5.216;2023-05-03T07:25:13;103022.0;;;17.34;33.71
64019;BME280;66942;52.138;5.216;2023-05-03T07:28:25;103014.00000000001;;;17.7;33.72
64019;BME280;66942;52.138;5.216;2023-05-03T07:30:02;103015.00000000001;;;17.64;32.33
64019;BME280;66942;52.138;5.216;2023-05-03T07:31:38;103008.0;;;18.09;32.06
64019;BME280;66942;52.138;5.216;2023-05-03T07:34:51;103011.99999999999;;;18.52;32.21
64019;BME280;66942;52.138;5.216;2023-05-03T07:36:28;103003.0;;;18.36;30.8
64019;BME280;66942;52.138;5.216;2023-05-03T07:38:04;103005.0;;;18.57;31.61
64019;BME280;66942;52.138;5.216;2023-05-03T07:41:16;103008.99999999999;;;19.2;31.5
64019;BME280;66942;52.138;5.216;2023-05-03T07:42:53;103008.99999999999;;;19.41;31.48
64019;BME280;66942;52.138;5.216;2023-05-03T07:44:29;103000.0;;;19.52;29.93
64019;BME280;66942;52.138;5.216;2023-05-03T07:46:05;102992.0;;;19.77;29.58
64019;BME280;66942;52.138;5.216;2023-05-03T07:49:16;102989.00000000001;;;19.86;29.43
64019;BME280;66942;52.138;5.216;2023-05-03T07:50:52;102986.99999999999;;;20.05;29.55
64019;BME280;66942;52.138;5.216;2023-05-03T07:52:28;102991.00000000001;;;19.89;28.98
64019;BME280;66942;52.138;5.216;2023-05-03T07:55:41;102988.00000000001;;;20.45;29.63
64019;BME280;66942;52.138;5.216;2023-05-03T07:57:17;102988.00000000001;;;20.45;28.22
64019;BME280;66942;52.138;5.216;2023-05-03T07:58:53;102986.99999999999;;;20.46;28.33
64019;BME280;66942;52.138;5.216;2023-05-03T08:02:06;102986.99999999999;;;20.21;28.76
64019;BME280;66942;52.138;5.216;2023-05-03T08:03:42;102982.0;;;20.56;29.82
64019;BME280;66942;52.138;5.216;2023-05-03T08:05:18;102974.0;;;20.59;29.36
64019;BME280;66942;52.138;5.216;2023-05-03T08:06:55;102980.0;;;20.9;28.82
64019;BME280;66942;52.138;5.216;2023-05-03T08:10:07;102983.99999999999;;;20.65;29.71
64019;BME280;66942;52.138;5.216;2023-05-03T08:11:44;102983.99999999999;;;21.11;30.56
64019;BME280;66942;52.138;5.216;2023-05-03T08:13:20;102979.0;;;20.47;28.25
64019;BME280;66942;52.138;5.216;2023-05-03T08:16:32;102983.0;;;20.94;28.97
64019;BME280;66942;52.138;5.216;2023-05-03T08:18:08;102977.0;;;20.8;28.24
64019;BME280;66942;52.138;5.216;2023-05-03T08:19:45;102975.0;;;21.36;27.98
64019;BME280;66942;52.138;5.216;2023-05-03T08:22:57;102963.00000000001;;;21.04;28.77
64019;BME280;66942;52.138;5.216;2023-05-03T08:24:33;102959.99999999999;;;21.37;28.8
64019;BME280;66942;52.138;5.216;2023-05-03T08:26:09;102956.0;;;20.87;27.46
64019;BME280;66942;52.138;5.216;2023-05-03T08:29:22;102957.0;;;20.64;28.84
64019;BME280;66942;52.138;5.216;2023-05-03T08:30:59;102950.0;;;21.38;27.79
64019;BME280;66942;52.138;5.216;2023-05-03T08:32:36;102953.0;;;21.65;29.19
64019;BME280;66942;52.138;5.216;2023-05-03T08:34:12;102950.0;;;21.57;27.5
64019;BME280;66942;52.138;5.216;2023-05-03T08:37:24;102958.99999999999;;;21.52;26.95
64019;BME280;66942;52.138;5.216;2023-05-03T08:39:01;102969.0;;;21.4;27.15
64019;BME280;66942;52.138;5.216;2023-05-03T08:40:38;102974.0;;;20.99;27.29
64019;BME280;66942;52.138;5.216;2023-05-03T08:43:51;102974.0;;;21.33;28.08
64019;BME280;66942;52.138;5.216;2023-05-03T08:45:31;102968.0;;;21.3;27.44
64019;BME280;66942;52.138;5.216;2023-05-03T08:47:08;102973.0;;;21.59;27.58
64019;BME280;66942;52.138;5.216;2023-05-03T08:48:46;102970.0;;;21.31;30.1
64019;BME280;66942;52.138;5.216;2023-05-03T08:52:01;102969.0;;;21.49;27.68
64019;BME280;66942;52.138;5.216;2023-05-03T08:53:40;102975.0;;;21.3;28.33
64019;BME280;66942;52.138;5.216;2023-05-03T08:55:16;102968.0;;;21.32;27.31
64019;BME280;66942;52.138;5.216;2023-05-03T08:58:28;102976.0;;;21.37;28.46
64019;BME280;66942;52.138;5.216;2023-05-03T09:00:06;102978.0;;;21.05;27.52
64019;BME280;66942;52.138;5.216;2023-05-03T09:01:43;102973.0;;;21.14;28.37
64019;BME280;66942;52.138;5.216;2023-05-03T09:04:55;102974.0;;;21.46;28.56
64019;BME280;66942;52.138;5.216;2023-05-03T09:06:32;102974.0;;;21.45;27.6
64019;BME280;66942;52.138;5.216;2023-05-03T09:08:11;102970.0;;;21.39;27.08
64019;BME280;66942;52.138;5.216;2023-05-03T09:09:47;102974.0;;;21.55;28.21
64019;BME280;66942;52.138;5.216;2023-05-03T09:13:04;102976.0;;;21.54;27.04
64019;BME280;66942;52.138;5.216;2023-05-03T09:14:41;102976.0;;;21.26;27.81
64019;BME280;66942;52.138;5.216;2023-05-03T09:16:22;102988.00000000001;;;20.84;26.79
64019;BME280;66942;52.138;5.216;2023-05-03T09:19:49;102984.99999999999;;;21.41;27.9
64019;BME280;66942;52.138;5.216;2023-05-03T09:21:28;102977.0;;;21.49;27.83
64019;BME280;66942;52.138;5.216;2023-05-03T09:23:05;102976.0;;;21.41;28.43
64019;BME280;66942;52.138;5.216;2023-05-03T09:24:50;102980.0;;;21.45;28.45
64019;BME280;66942;52.138;5.216;2023-05-03T09:26:27;102975.0;;;21.86;27.25
64019;BME280;66942;52.138;5.216;2023-05-03T09:29:40;102978.0;;;22.15;26.9
64019;BME280;66942;52.138;5.216;2023-05-03T09:31:16;102989.00000000001;;;22.14;27.12
64019;BME280;66942;52.138;5.216;2023-05-03T09:32:52;102992.0;;;21.9;26.37
64019;BME280;66942;52.138;5.216;2023-05-03T09:36:06;102984.99999999999;;;22.14;28.04
64019;BME280;66942;52.138;5.216;2023-05-03T09:37:42;102983.0;;;22.28;26.98
64019;BME280;66942;52.138;5.216;2023-05-03T09:39:18;102982.0;;;21.91;26.87
64019;BME280;66942;52.138;5.216;2023-05-03T09:42:30;102981.0;;;21.95;26.33
64019;BME280;66942;52.138;5.216;2023-05-03T09:44:06;102982.0;;;21.82;26.53
64019;BME280;66942;52.138;5.216;2023-05-03T09:45:42;102983.0;;;22.22;29.03
64019;BME280;66942;52.138;5.216;2023-05-03T09:47:19;102990.00000000001;;;22.4;26.07
64019;BME280;66942;52.138;5.216;2023-05-03T09:50:33;102983.0;;;22.34;26.76
64019;BME280;66942;52.138;5.216;2023-05-03T09:52:10;102981.0;;;22.45;25.52
64019;BME280;66942;52.138;5.216;2023-05-03T09:53:46;102974.0;;;22.12;27.28
64019;BME280;66942;52.138;5.216;2023-05-03T09:57:01;102971.0;;;21.99;26.07
64019;BME280;66942;52.138;5.216;2023-05-03T09:58:39;102967.0;;;22.02;27.26
64019;BME280;66942;52.138;5.216;2023-05-03T10:00:16;102969.0;;;22.02;26.24
64019;BME280;66942;52.138;5.216;2023-05-03T10:03:38;102967.0;;;21.95;27.06
64019;BME280;66942;52.138;5.216;2023-05-03T10:05:16;102967.0;;;22.11;26.88
64019;BME280;66942;52.138;5.216;2023-05-03T10:06:58;102965.00000000001;;;22.75;27.41
64019;BME280;66942;52.138;5.216;2023-05-03T10:08:39;102963.00000000001;;;22.53;26.71
64019;BME280;66942;52.138;5.216;2023-05-03T10:11:53;102958.99999999999;;;22.48;31.71
64019;BME280;66942;52.138;5.216;2023-05-03T10:13:33;102955.0;;;22.6;25.49
64019;BME280;66942;52.138;5.216;2023-05-03T10:15:11;102950.0;;;22.92;25.99
64019;BME280;66942;52.138;5.216;2023-05-03T10:16:52;102948.0;;;22.85;25.12
64019;BME280;66942;52.138;5.216;2023-05-03T10:20:24;102951.0;;;22.59;25.58
64019;BME280;66942;52.138;5.216;2023-05-03T10:22:04;102951.0;;;22.94;26.09
64019;BME280;66942;52.138;5.216;2023-05-03T10:24:08;102949.0;;;22.91;24.46
64019;BME280;66942;52.138;5.216;2023-05-03T10:26:15;102951.0;;;22.88;26.25
64019;BME280;66942;52.138;5.216;2023-05-03T10:28:00;102947.0;;;22.52;24.79
64019;BME280;66942;52.138;5.216;2023-05-03T10:29:46;102949.0;;;22.86;25.72
64019;BME280;66942;52.138;5.216;2023-05-03T10:31:57;102953.0;;;22.92;26.48
64019;BME280;66942;52.138;5.216;2023-05-03T10:33:33;102947.0;;;23.03;25.41
64019;BME280;66942;52.138;5.216;2023-05-03T10:36:50;102950.0;;;22.97;25.91
64019;BME280;66942;52.138;5.216;2023-05-03T10:38:28;102943.0;;;23.14;25.8